地図

経路データ

SID SEASON NUMBER BASIN SUBBASIN NAME ISO_TIME NATURE LAT LON WMO_WIND WMO_PRES WMO_AGENCY TRACK_TYPE DIST2LAND LANDFALL IFLAG USA_AGENCY USA_ATCF_ID USA_LAT USA_LON USA_RECORD USA_STATUS USA_WIND USA_PRES USA_SSHS USA_R34_NE USA_R34_SE USA_R34_SW USA_R34_NW USA_R50_NE USA_R50_SE USA_R50_SW USA_R50_NW USA_R64_NE USA_R64_SE USA_R64_SW USA_R64_NW USA_POCI USA_ROCI USA_RMW USA_EYE TOKYO_LAT TOKYO_LON TOKYO_GRADE TOKYO_WIND TOKYO_PRES TOKYO_R50_DIR TOKYO_R50_LONG TOKYO_R50_SHORT TOKYO_R30_DIR TOKYO_R30_LONG TOKYO_R30_SHORT TOKYO_LAND CMA_LAT CMA_LON CMA_CAT CMA_WIND CMA_PRES HKO_LAT HKO_LON HKO_CAT HKO_WIND HKO_PRES NEWDELHI_LAT NEWDELHI_LON NEWDELHI_GRADE NEWDELHI_WIND NEWDELHI_PRES NEWDELHI_CI NEWDELHI_DP NEWDELHI_POCI REUNION_LAT REUNION_LON REUNION_TYPE REUNION_WIND REUNION_PRES REUNION_TNUM REUNION_CI REUNION_RMW REUNION_R34_NE REUNION_R34_SE REUNION_R34_SW REUNION_R34_NW REUNION_R50_NE REUNION_R50_SE REUNION_R50_SW REUNION_R50_NW REUNION_R64_NE REUNION_R64_SE REUNION_R64_SW REUNION_R64_NW BOM_LAT BOM_LON BOM_TYPE BOM_WIND BOM_PRES BOM_TNUM BOM_CI BOM_RMW BOM_R34_NE BOM_R34_SE BOM_R34_SW BOM_R34_NW BOM_R50_NE BOM_R50_SE BOM_R50_SW BOM_R50_NW BOM_R64_NE BOM_R64_SE BOM_R64_SW BOM_R64_NW BOM_ROCI BOM_POCI BOM_EYE BOM_POS_METHOD BOM_PRES_METHOD NADI_LAT NADI_LON NADI_CAT NADI_WIND NADI_PRES WELLINGTON_LAT WELLINGTON_LON WELLINGTON_WIND WELLINGTON_PRES DS824_LAT DS824_LON DS824_STAGE DS824_WIND DS824_PRES TD9636_LAT TD9636_LON TD9636_STAGE TD9636_WIND TD9636_PRES TD9635_LAT TD9635_LON TD9635_WIND TD9635_PRES TD9635_ROCI NEUMANN_LAT NEUMANN_LON NEUMANN_CLASS NEUMANN_WIND NEUMANN_PRES MLC_LAT MLC_LON MLC_CLASS MLC_WIND MLC_PRES USA_GUST BOM_GUST BOM_GUST_PER REUNION_GUST REUNION_GUST_PER USA_SEAHGT USA_SEARAD_NE USA_SEARAD_SE USA_SEARAD_SW USA_SEARAD_NW STORM_SPEED STORM_DIR
1966024S15190 1966 7 SP MM NOT_NAMED 1966-01-24 00:00:00 TS -15.1000 190.000 main 278 227 O________OO_O_ jtwc_sh SH181966 -15.1000 -170.000 -1 -15.1000 190.000 TC 25 -15.1000 -170.000 1 -15.1000 -170.000 TC 30 11 276
1966024S15190 1966 7 SP MM NOT_NAMED 1966-01-24 03:00:00 TS -15.0460 189.456 main 227 186 P________PP_P_ SH181966 -15.0453 -170.563 -1 -15.0453 -170.563 TC 25 -15.0485 -170.556 1 -15.0451 -170.493 TC 32 10 275
1966024S15190 1966 7 SP MM NOT_NAMED 1966-01-24 06:00:00 TS -15.0017 188.927 main 179 154 O________OP_O_ jtwc_sh SH181966 -15.0000 -171.100 -1 -15.0000 188.900 TC 25 -15.0069 -171.090 1 -15.0000 -171.000 TC 35 10 274
1966024S15190 1966 7 SP MM NOT_NAMED 1966-01-24 09:00:00 TS -14.9798 188.431 main 149 136 P________PP_P_ SH181966 -14.9774 -171.588 -1 -14.9774 -171.588 TC 25 -14.9869 -171.579 1 -14.9775 -171.523 TC 35 9 270
1966024S15190 1966 7 SP MM NOT_NAMED 1966-01-24 12:00:00 TS -15.0000 188.000 main 136 134 O________OO_O_ jtwc_sh SH181966 -15.0000 -172.000 -1 -15.0000 188.000 TC 25 -15.0000 -172.000 1 -15.0000 -172.000 TC 35 7 262
1966024S15190 1966 7 SP MM NOT_NAMED 1966-01-24 15:00:00 TS -15.0773 187.667 main 145 145 P________PP_P_ SH181966 -15.0848 -172.308 -1 -15.0848 -172.308 TC 25 -15.0547 -172.345 1 -15.0848 -172.372 TC 37 6 253
1966024S15190 1966 7 SP MM NOT_NAMED 1966-01-24 18:00:00 TS -15.1864 187.361 main 156 156 O________OP_O_ jtwc_sh SH181966 -15.2000 -172.600 -1 -15.2000 187.400 TC 25 -15.1457 -172.655 1 -15.2000 -172.700 TC 40 7 252
1966024S15190 1966 7 SP MM NOT_NAMED 1966-01-24 21:00:00 TS -15.2814 187.028 main 173 173 P________PP_P_ SH181966 -15.2848 -172.948 -1 -15.2848 -172.948 TC 25 -15.2640 -172.988 1 -15.2922 -173.005 TC 40 8 254
1966024S15190 1966 7 SP MM NOT_NAMED 1966-01-25 00:00:00 TS -15.4000 186.600 main 198 198 O________OO_O_ jtwc_sh SH181966 -15.4000 -173.400 -1 -15.4000 186.600 TC 25 -15.4000 -173.400 1 -15.4000 -173.400 TC 40 10 253
1966024S15190 1966 7 SP MM NOT_NAMED 1966-01-25 03:00:00 TS -15.5779 185.999 main 251 251 P________PP_P_ SH181966 -15.6001 -174.012 -1 -15.6001 -174.012 TC 25 -15.5688 -173.975 1 -15.5426 -174.005 TC 40 13 254
1966024S15190 1966 7 SP MM NOT_NAMED 1966-01-25 06:00:00 TS -15.7615 185.317 main 318 318 O________OP_O_ jtwc_sh SH181966 -15.8000 -174.700 -1 -15.8000 185.300 TC 25 -15.7460 -174.631 1 -15.7000 -174.700 TC 40 13 256
1966024S15190 1966 7 SP MM NOT_NAMED 1966-01-25 09:00:00 TS -15.9118 184.651 main 373 373 P________PP_P_ SH181966 -15.9374 -175.357 -1 -15.9374 -175.357 TC 25 -15.9000 -175.322 1 -15.8724 -175.357 TC 42 13 259
1966024S15190 1966 7 SP MM NOT_NAMED 1966-01-25 12:00:00 TS -16.0000 184.000 main 438 374 O________OO_O_ jtwc_sh SH181966 -16.0000 -176.000 -1 -16.0000 184.000 TC 25 -16.0000 -176.000 1 -16.0000 -176.000 TC 45 12 266
1966024S15190 1966 7 SP MM NOT_NAMED 1966-01-25 15:00:00 TS -15.9974 183.376 main 374 311 P________PP_P_ SH181966 -15.9723 -176.615 -1 -15.9723 -176.615 TC 25 -16.0075 -176.650 1 -16.0373 -176.615 TC 45 12 273
1966024S15190 1966 7 SP MM NOT_NAMED 1966-01-25 18:00:00 TS -15.9401 182.782 main 311 248 O________OP_O_ jtwc_sh SH181966 -15.9000 -177.200 -1 -15.9000 182.800 TC 25 -15.9602 -177.271 1 -16.0000 -177.200 TC 45 11 276
1966024S15190 1966 7 SP MM NOT_NAMED 1966-01-25 21:00:00 TS -15.8726 182.194 main 248 197 P________PP_P_ SH181966 -15.8500 -177.795 -1 -15.8500 -177.795 TC 25 -15.8827 -177.831 1 -15.9076 -177.803 TC 45 11 278
1966024S15190 1966 7 SP MM NOT_NAMED 1966-01-26 00:00:00 TS -15.8000 181.700 main 197 166 O________OO_O_ jtwc_sh SH181966 -15.8000 -178.300 -1 -15.8000 181.700 TC 25 -15.8000 -178.300 1 -15.8000 -178.300 TC 45 8 279
1966024S15190 1966 7 SP MM NOT_NAMED 1966-01-26 03:00:00 TS -15.7488 181.360 main 169 140 P________PP_P_ SH181966 -15.7498 -178.652 -1 -15.7498 -178.652 TC 25 -15.7533 -178.659 1 -15.7423 -178.595 TC 45 6 280
1966024S15190 1966 7 SP MM NOT_NAMED 1966-01-26 06:00:00 TS -15.7016 181.118 main 140 120 O________OP_O_ jtwc_sh SH181966 -15.7000 -178.900 -1 -15.7000 181.100 TC 25 -15.7066 -178.927 1 -15.7000 -178.800 TC 45 5 282
1966024S15190 1966 7 SP MM NOT_NAMED 1966-01-26 09:00:00 TS -15.6517 180.886 main 120 108 P________PP_P_ SH181966 -15.6500 -179.130 -1 -15.6500 -179.130 TC 25 -15.6567 -179.131 1 -15.6500 -179.065 TC 47 4 284
1966024S15190 1966 7 SP MM NOT_NAMED 1966-01-26 12:00:00 TS -15.6000 180.700 main 108 100 O________OO_O_ jtwc_sh SH181966 -15.6000 -179.300 -1 -15.6000 180.700 TC 25 -15.6000 -179.300 1 -15.6000 -179.300 TC 50 3 289
1966024S15190 1966 7 SP MM NOT_NAMED 1966-01-26 15:00:00 TS -15.5510 180.572 main 100 100 P________PP_P_ SH181966 -15.5574 -179.400 -1 -15.5574 -179.400 TC 25 -15.5318 -179.446 1 -15.5575 -179.465 TC 50 3 295
1966024S15190 1966 7 SP MM NOT_NAMED 1966-01-26 18:00:00 TS -15.4892 180.458 main 101 94 O________OP_O_ jtwc_sh SH181966 -15.5000 -179.500 -1 -15.5000 180.500 TC 25 -15.4570 -179.570 1 -15.5000 -179.600 TC 50 3 302
1966024S15190 1966 7 SP MM NOT_NAMED 1966-01-26 21:00:00 TS -15.3965 180.312 main 99 95 P________PP_P_ SH181966 -15.3999 -179.663 -1 -15.3999 -179.663 TC 25 -15.3786 -179.709 1 -15.4074 -179.720 TC 52 4 299
1966024S15190 1966 7 SP MM NOT_NAMED 1966-01-27 00:00:00 TS -15.3000 180.100 main 102 100 O________OO_O_ jtwc_sh SH181966 -15.3000 -179.900 -1 -15.3000 180.100 TC 25 -15.3000 -179.900 1 -15.3000 -179.900 TC 55 5 289
1966024S15190 1966 7 SP MM NOT_NAMED 1966-01-27 03:00:00 TS -15.2223 179.783 main 111 111 P________PP_P_ SH181966 -15.2500 179.773 -1 -15.2500 179.773 TC 25 -15.1967 179.807 1 -15.1926 179.780 TC 57 7 283
1966024S15190 1966 7 SP MM NOT_NAMED 1966-01-27 06:00:00 TS -15.1494 179.415 main 130 130 O________OP_O_ jtwc_sh SH181966 -15.2000 179.400 -1 -15.2000 179.400 TC 25 -15.0977 179.459 1 -15.1000 179.400 TC 60 7 284
1966024S15190 1966 7 SP MM NOT_NAMED 1966-01-27 09:00:00 TS -15.0499 179.058 main 151 151 P________PP_P_ SH181966 -15.0774 179.050 -1 -15.0774 179.050 TC 25 -15.0248 179.082 1 -15.0199 179.050 TC 60 7 282
1966024S15190 1966 7 SP MM NOT_NAMED 1966-01-27 12:00:00 TS -15.0000 178.700 main 168 168 O________OO_O_ jtwc_sh SH181966 -15.0000 178.700 -1 -15.0000 178.700 TC 25 -15.0000 178.700 1 -15.0000 178.700 TC 60 7 268
1966024S15190 1966 7 SP MM NOT_NAMED 1966-01-27 15:00:00 TS -15.0790 178.328 main 173 173 P________PP_P_ SH181966 -15.0699 178.350 -1 -15.0699 178.350 TC 25 -15.0988 178.261 1 -15.0774 178.350 TC 60 7 254
1966024S15190 1966 7 SP MM NOT_NAMED 1966-01-27 18:00:00 TS -15.2095 177.959 main 176 173 O________OP_O_ jtwc_sh SH181966 -15.2000 178.000 -1 -15.2000 178.000 TC 25 -15.2380 177.836 1 -15.2000 178.000 TC 60 8 250
1966024S15190 1966 7 SP MM NOT_NAMED 1966-01-27 21:00:00 TS -15.3483 177.566 main 183 180 P________PP_P_ SH181966 -15.3451 177.590 -1 -15.3451 177.590 TC 25 -15.3581 177.492 1 -15.3451 177.590 TC 60 7 253
1966024S15190 1966 7 SP MM NOT_NAMED 1966-01-28 00:00:00 TS -15.4000 177.300 main 193 193 O________OO_O_ jtwc_sh SH181966 -15.4000 177.300 -1 -15.4000 177.300 TC 25 -15.4000 177.300 1 -15.4000 177.300 TC 60 3 290
1966024S15190 1966 7 SP MM NOT_NAMED 1966-01-28 03:00:00 TS -15.2429 177.265 main 211 211 P________PP_P_ SH181966 -15.2448 177.245 -1 -15.2448 177.245 TC 25 -15.2372 177.326 1 -15.2448 177.245 TC 62 4 17
1966024S15190 1966 7 SP MM NOT_NAMED 1966-01-28 06:00:00 TS -14.9999 177.426 main 223 218 O________OP_O_ jtwc_sh SH181966 -15.0000 177.400 -1 -15.0000 177.400 TC 25 -14.9997 177.506 1 -15.0000 177.400 TC 65 7 43
1966024S15190 1966 7 SP MM NOT_NAMED 1966-01-28 09:00:00 TS -14.7588 177.734 main 229 229 P________PP_P_ SH181966 -14.7552 177.720 -1 -14.7552 177.720 TC 25 -14.7624 177.783 1 -14.7626 177.713 TC 67 8 58
1966024S15190 1966 7 SP MM NOT_NAMED 1966-01-28 12:00:00 TS -14.6000 178.100 main 233 225 O________OO_O_ jtwc_sh SH181966 -14.6000 178.100 -1 -14.6000 178.100 TC 25 -14.6000 178.100 1 -14.6000 178.100 TC 70 6 79
1966024S15190 1966 7 SP MM NOT_NAMED 1966-01-28 15:00:00 TS -14.6477 178.327 main 225 193 P________PP_P_ SH181966 -14.6549 178.350 -1 -14.6549 178.350 TC 25 -14.6838 178.199 1 -14.5974 178.407 TC 70 5 112
1966024S15190 1966 7 SP MM NOT_NAMED 1966-01-28 18:00:00 TS -14.7849 178.563 main 193 163 O________OP_O_ jtwc_sh SH181966 -14.8000 178.600 -1 -14.8000 178.600 TC 25 -14.8394 178.353 1 -14.7000 178.700 TC 70 5 126
1966024S15190 1966 7 SP MM NOT_NAMED 1966-01-28 21:00:00 TS -14.9579 178.776 main 163 144 P________PP_P_ SH181966 -14.9737 178.792 -1 -14.9737 178.792 TC 25 -14.9756 178.680 1 -14.9086 178.842 TC 70 7 107
1966024S15190 1966 7 SP MM NOT_NAMED 1966-01-29 00:00:00 TS -15.0000 179.300 main 144 138 O________OO_O_ jtwc_sh SH181966 -15.0000 179.300 -1 -15.0000 179.300 TC 25 -15.0000 179.300 1 -15.0000 179.300 TC 70 17 81
1966024S15190 1966 7 SP MM NOT_NAMED 1966-01-29 03:00:00 TS -14.6886 180.471 main 179 179 P________PP_P_ SH181966 -14.6608 -179.556 -1 -14.6608 -179.556 TC 25 -14.7067 -179.496 1 -14.7262 -179.506 TC 72 27 74
1966024S15190 1966 7 SP MM NOT_NAMED 1966-01-29 06:00:00 TS -14.2493 181.943 main 310 310 O________OP_O_ jtwc_sh SH181966 -14.2000 -178.100 -1 -14.2000 181.900 TC 25 -14.2971 -178.028 1 -14.3000 -178.000 TC 75 30 74
1966024S15190 1966 7 SP MM NOT_NAMED 1966-01-29 09:00:00 TS -13.8503 183.452 main 402 281 P________PP_P_ SH181966 -13.8189 -176.565 -1 -13.8189 -176.565 TC 25 -13.8875 -176.548 1 -13.8760 -176.514 TC 75 28 76
1966024S15190 1966 7 SP MM NOT_NAMED 1966-01-29 12:00:00 TS -13.6000 184.700 main 270 206 O________OO_O_ jtwc_sh SH181966 -13.6000 -175.300 -1 -13.6000 184.700 TC 25 -13.6000 -175.300 1 -13.6000 -175.300 TC 75 18 84
1966024S15190 1966 7 SP MM NOT_NAMED 1966-01-29 15:00:00 TS -13.6643 185.278 main 206 176 P________PP_P_ SH181966 -13.6810 -174.758 -1 -13.6810 -174.758 TC 25 -13.6214 -174.661 1 -13.6737 -174.708 TC 75 9 107
1966024S15190 1966 7 SP MM NOT_NAMED 1966-01-29 18:00:00 TS -13.8703 185.583 main 178 151 O________OP_O_ jtwc_sh SH181966 -13.9000 -174.500 -1 -13.9000 185.500 TC 25 -13.7811 -174.266 1 -13.9000 -174.400 TC 75 8 121
1966024S15190 1966 7 SP MM NOT_NAMED 1966-01-29 21:00:00 TS -14.0505 185.947 main 155 116 P________PP_P_ SH181966 -14.0646 -174.102 -1 -14.0646 -174.102 TC 25 -14.0006 -173.963 1 -14.0721 -174.045 TC 75 9 113
1966024S15190 1966 7 SP MM NOT_NAMED 1966-01-30 00:00:00 TS -14.2000 186.400 main 116 62 O________OO_O_ jtwc_sh SH181966 -14.2000 -173.600 -1 -14.2000 186.400 TC 25 -14.2000 -173.600 1 -14.2000 -173.600 TC 75 11 100
1966024S15190 1966 7 SP MM NOT_NAMED 1966-01-30 03:00:00 TS -14.2526 187.103 main 64 55 P________PP_P_ SH181966 -14.2727 -172.887 -1 -14.2727 -172.887 TC 25 -14.2499 -172.920 1 -14.2152 -172.895 TC 77 14 93
1966024S15190 1966 7 SP MM NOT_NAMED 1966-01-30 06:00:00 TS -14.2667 187.884 main 57 57 O________OP_O_ jtwc_sh SH181966 -14.3000 -172.100 -1 -14.3000 187.900 TC 25 -14.2667 -172.164 1 -14.2000 -172.100 TC 80 15 91
1966024S15190 1966 7 SP MM NOT_NAMED 1966-01-30 09:00:00 TS -14.2794 188.632 main 102 102 P________PP_P_ SH181966 -14.3000 -171.355 -1 -14.3000 -171.355 TC 25 -14.2749 -171.401 1 -14.2425 -171.363 TC 82 14 91
1966024S15190 1966 7 SP MM NOT_NAMED 1966-01-30 12:00:00 TS -14.3000 189.300 main 171 171 O________OO_O_ jtwc_sh SH181966 -14.3000 -170.700 -1 -14.3000 189.300 TC 25 -14.3000 -170.700 1 -14.3000 -170.700 TC 85 11 92
1966024S15190 1966 7 SP MM NOT_NAMED 1966-01-30 15:00:00 TS -14.3223 189.811 main 222 222 P________PP_P_ SH181966 -14.3271 -170.220 -1 -14.3271 -170.220 TC 30 -14.3001 -170.152 1 -14.3347 -170.162 TC 85 9 95
1966024S15190 1966 7 SP MM NOT_NAMED 1966-01-30 18:00:00 TS -14.3834 190.257 main 277 277 O________OP_O_ jtwc_sh SH181966 -14.4000 -169.800 -1 -14.4000 190.200 TC 35 -14.3336 -169.673 1 -14.4000 -169.700 TC 85 9 99
1966024S15190 1966 7 SP MM NOT_NAMED 1966-01-30 21:00:00 TS -14.4688 190.730 main 322 322 P________PP_P_ SH181966 -14.4750 -169.300 -1 -14.4750 -169.300 TC 50 -14.4504 -169.233 1 -14.4748 -169.250 TC 85 10 109
1966024S15190 1966 7 SP MM NOT_NAMED 1966-01-31 00:00:00 TS -14.7000 191.200 main 380 380 O________OO_O_ jtwc_sh SH181966 -14.7000 -168.800 -1 -14.7000 191.200 TC 65 -14.7000 -168.800 4 -14.7000 -168.800 TC 85 12 128
1966024S15190 1966 7 SP MM NOT_NAMED 1966-01-31 03:00:00 TS -15.1745 191.674 main 448 448 P________PP_P_ SH181966 -15.1823 -168.350 -1 -15.1823 -168.350 TC 65 -15.1507 -168.302 4 -15.1825 -168.300 TC 87 14 140
1966024S15190 1966 7 SP MM NOT_NAMED 1966-01-31 06:00:00 TS -15.7826 192.148 main 513 513 O________OP_O_ jtwc_sh SH181966 -15.8000 -167.900 -1 -15.8000 192.100 TC 65 -15.7302 -167.807 4 -15.8000 -167.800 TC 90 15 142
1966024S15190 1966 7 SP MM NOT_NAMED 1966-01-31 09:00:00 TS -16.3887 192.646 main 591 591 P________PP_P_ SH181966 -16.3926 -167.385 -1 -16.3926 -167.385 TC 65 -16.3696 -167.333 4 -16.4000 -167.313 TC 90 15 143
1966024S15190 1966 7 SP MM NOT_NAMED 1966-01-31 12:00:00 TS -17.0000 193.100 main 671 671 O________OO_O_ jtwc_sh SH181966 -17.0000 -166.900 -1 -17.0000 193.100 TC 65 -17.0000 -166.900 4 -17.0000 -166.900 TC 90 14 148
1966024S15190 1966 7 SP MM NOT_NAMED 1966-01-31 15:00:00 TS -17.6064 193.443 main 735 735 P________PP_P_ SH181966 -17.6298 -166.520 -1 -17.6298 -166.520 TC 65 -17.5938 -166.548 4 -17.5722 -166.642 TC 90 13 152
1966024S15190 1966 7 SP MM NOT_NAMED 1966-01-31 18:00:00 TS -18.1641 193.741 main 800 800 O________OP_O_ jtwc_sh SH181966 -18.2000 -166.200 -1 -18.2000 193.800 TC 65 -18.1563 -166.235 4 -18.1000 -166.400 TC 90 12 151
1966024S15190 1966 7 SP MM NOT_NAMED 1966-01-31 21:00:00 TS -18.6576 194.058 main 867 867 P________PP_P_ SH181966 -18.6823 -165.907 -1 -18.6823 -165.907 TC 65 -18.6407 -165.929 4 -18.6250 -166.023 TC 90 10 143
1966024S15190 1966 7 SP MM NOT_NAMED 1966-02-01 00:00:00 TS -19.0000 194.400 main 913 913 O________OO_O_ jtwc_sh SH181966 -19.0000 -165.600 -1 -19.0000 194.400 TC 65 -19.0000 -165.600 4 -19.0000 -165.600 TC 90 8 124
1966024S15190 1966 7 SP MM NOT_NAMED 1966-02-01 03:00:00 TS -19.1225 194.788 main 953 953 P________PP_P_ SH181966 -19.1024 -165.222 -1 -19.1024 -165.222 TC 65 -19.1753 -165.198 4 -19.1099 -165.207 TC 90 8 100
1966024S15190 1966 7 SP MM NOT_NAMED 1966-02-01 06:00:00 TS -19.1319 195.207 main 987 987 O________OP_O_ jtwc_sh SH181966 -19.1000 -164.800 -1 -19.1000 195.200 TC 65 -19.2275 -164.771 4 -19.1000 -164.800 TC 90 8 93
1966024S15190 1966 7 SP MM NOT_NAMED 1966-02-01 09:00:00 TS -19.1665 195.654 main 1036 1036 P________PP_P_ SH181966 -19.1500 -164.350 -1 -19.1500 -164.350 TC 65 -19.2159 -164.333 4 -19.1500 -164.350 TC 90 8 95
1966024S15190 1966 7 SP MM NOT_NAMED 1966-02-01 12:00:00 TS -19.2000 196.100 main 1071 1071 O________OO_O_ jtwc_sh SH181966 -19.2000 -163.900 -1 -19.2000 196.100 TC 65 -19.2000 -163.900 4 -19.2000 -163.900 TC 90 8 95
1966024S15190 1966 7 SP MM NOT_NAMED 1966-02-01 15:00:00 TS -19.2325 196.514 main 1106 1106 P________PP_P_ SH181966 -19.2424 -163.492 -1 -19.2424 -163.492 TC 65 -19.2028 -163.468 4 -19.2424 -163.492 TC 92 8 96
1966024S15190 1966 7 SP MM NOT_NAMED 1966-02-01 18:00:00 TS -19.2806 196.913 main 1148 1148 O________OP_O_ jtwc_sh SH181966 -19.3000 -163.100 -1 -19.3000 196.900 TC 65 -19.2226 -163.046 4 -19.3000 -163.100 TC 95 8 98
1966024S15190 1966 7 SP MM NOT_NAMED 1966-02-01 21:00:00 TS -19.3371 197.323 main 1184 1184 P________PP_P_ SH181966 -19.3475 -162.685 -1 -19.3475 -162.685 TC 65 -19.3060 -162.652 4 -19.3475 -162.685 TC 95 8 106
1966024S15190 1966 7 SP MM NOT_NAMED 1966-02-02 00:00:00 TS -19.5000 197.700 main 1232 1232 O________OO_O_ jtwc_sh SH181966 -19.5000 -162.300 -1 -19.5000 197.700 TC 65 -19.5000 -162.300 4 -19.5000 -162.300 TC 95 8 127
1966024S15190 1966 7 SP MM NOT_NAMED 1966-02-02 03:00:00 TS -19.8423 198.025 main 1276 1276 P________PP_P_ SH181966 -19.8324 -161.970 -1 -19.8324 -161.970 TC 65 -19.8719 -161.991 4 -19.8324 -161.970 TC 92 10 146
1966024S15190 1966 7 SP MM NOT_NAMED 1966-02-02 06:00:00 TS -20.3130 198.294 main 1331 1331 O________OP_O_ jtwc_sh SH181966 -20.3000 -161.700 -1 -20.3000 198.300 TC 65 -20.3522 -161.726 4 -20.3000 -161.700 TC 90 11 155
1966024S15190 1966 7 SP MM NOT_NAMED 1966-02-02 09:00:00 TS -20.8578 198.518 main 1385 1385 P________PP_P_ SH181966 -20.8499 -161.477 -1 -20.8499 -161.477 TC 65 -20.8814 -161.497 4 -20.8499 -161.477 TC 90 12 161
1966024S15190 1966 7 SP MM NOT_NAMED 1966-02-02 12:00:00 TS -21.4000 198.700 main 1433 1433 O________OO_O_ jtwc_sh SH181966 -21.4000 -161.300 -1 -21.4000 198.700 TC 65 -21.4000 -161.300 4 -21.4000 -161.300 TC 90 10 162
1966024S15190 1966 7 SP MM NOT_NAMED 1966-02-02 15:00:00 TS -21.8211 198.855 main 1476 1476 P________PP_P_ SH181966 -21.8225 -161.142 -1 -21.8225 -161.142 TC 65 -21.8170 -161.152 4 -21.8225 -161.142 TC 90 9 161
1966024S15190 1966 7 SP MM NOT_NAMED 1966-02-02 18:00:00 TS -22.2036 198.993 main 1510 1510 O________OP_O_ jtwc_sh SH181966 -22.2000 -161.000 -1 -22.2000 199.000 TC 65 -22.2142 -161.028 4 -22.2000 -161.000 TC 90 8 163
1966024S15190 1966 7 SP MM NOT_NAMED 1966-02-02 21:00:00 TS -22.5954 199.118 main 1546 1546 P________PP_P_ SH181966 -22.5924 -160.880 -1 -22.5924 -160.880 TC 65 -22.6044 -160.890 4 -22.5924 -160.880 TC 90 8 161
1966024S15190 1966 7 SP MM NOT_NAMED 1966-02-03 00:00:00 TS -23.0000 199.300 main 1589 1589 O________OO_O_ jtwc_sh SH181966 -23.0000 -160.700 -1 -23.0000 199.300 TC 65 -23.0000 -160.700 4 -23.0000 -160.700 TC 90 10 152
1966024S15190 1966 7 SP MM NOT_NAMED 1966-02-03 03:00:00 TS -23.4442 199.616 main 1641 1641 P________PP_P_ SH181966 -23.4501 -160.380 -1 -23.4501 -160.380 TC 65 -23.4264 -160.396 4 -23.4501 -160.380 TC 87 11 145
1966024S15190 1966 7 SP MM NOT_NAMED 1966-02-03 06:00:00 TS -23.8895 199.990 main 1708 1708 O________OP_O_ jtwc_sh SH181966 -23.9000 -160.000 -1 -23.9000 200.000 TC 65 -23.8581 -160.038 4 -23.9000 -160.000 TC 85 11 142
1966024S15190 1966 7 SP MM NOT_NAMED 1966-02-03 09:00:00 TS -24.3039 200.349 main 1760 1760 P________PP_P_ SH181966 -24.3074 -159.650 -1 -24.3074 -159.650 TC 65 -24.2857 -159.662 4 -24.3150 -159.642 TC 85 10 141
1966024S15190 1966 7 SP MM NOT_NAMED 1966-02-03 12:00:00 TS -24.7000 200.700 main 1819 1819 O________OO_O_ jtwc_sh SH181966 -24.7000 -159.300 -1 -24.7000 200.700 TC 65 -24.7000 -159.300 4 -24.7000 -159.300 TC 85 10 140
1966024S15190 1966 7 SP MM NOT_NAMED 1966-02-03 15:00:00 TS -25.0916 201.068 main 1879 1879 P________PP_P_ SH181966 -25.1075 -158.928 -1 -25.1075 -158.928 TC 65 -25.1015 -158.887 4 -25.0499 -158.985 TC 85 10 141
1966024S15190 1966 7 SP MM NOT_NAMED 1966-02-03 18:00:00 TS -25.4718 201.397 main 1931 1931 O________OP_O_ jtwc_sh SH181966 -25.5000 -158.600 -1 -25.5000 201.400 TC 65 -25.4871 -158.513 4 -25.4000 -158.700 TC 85 9 143
1966024S15190 1966 7 SP MM NOT_NAMED 1966-02-03 21:00:00 TS -25.8459 201.698 main 1975 1975 P________PP_P_ SH181966 -25.8648 -158.295 -1 -25.8648 -158.295 TC 65 -25.8541 -158.257 4 -25.8000 -158.361 TC 85 8 154
1966024S15190 1966 7 SP MM NOT_NAMED 1966-02-04 00:00:00 TS -26.2000 201.800 main 2012 2012 O________OO_O_ jtwc_sh SH181966 -26.2000 -158.200 -1 -26.2000 201.800 TC 65 -26.2000 -158.200 4 -26.2000 -158.200 TC 85 7 188
1966024S15190 1966 7 SP MM NOT_NAMED 1966-02-04 03:00:00 TS -26.5282 201.582 main 2019 2012 P________PP_P_ SH181966 -26.5074 -158.437 -1 -26.5074 -158.437 TC 65 -26.5258 -158.423 4 -26.5722 -158.372 TC 85 9 223
1966024S15190 1966 7 SP MM NOT_NAMED 1966-02-04 06:00:00 TS -26.8326 201.137 main 2006 1994 O________OP_O_ jtwc_sh SH181966 -26.8000 -158.900 -1 -26.8000 201.100 TC 65 -26.8305 -158.850 4 -26.9000 -158.800 TC 85 11 236
1966024S15190 1966 7 SP MM NOT_NAMED 1966-02-04 09:00:00 TS -27.1213 200.602 main 1994 1976 P________PP_P_ SH181966 -27.1000 -159.413 -1 -27.1000 -159.413 TC 65 -27.1198 -159.402 4 -27.1653 -159.363 TC 85 12 241
1966024S15190 1966 7 SP MM NOT_NAMED 1966-02-04 12:00:00 TS -27.4000 200.000 main 1978 1962 O________OO_O_ jtwc_sh SH181966 -27.4000 -160.000 -1 -27.4000 200.000 TC 65 -27.4000 -160.000 4 -27.4000 -160.000 TC 85 12 242
1966024S15190 1966 7 SP MM NOT_NAMED 1966-02-04 15:00:00 TS -27.6882 199.412 main 1964 1950 P________PP_P_ SH181966 -27.7075 -160.608 -1 -27.7075 -160.608 TC 65 -27.6955 -160.577 4 -27.6422 -160.558 TC 85 12 241
1966024S15190 1966 7 SP MM NOT_NAMED 1966-02-04 18:00:00 TS -27.9704 198.832 main 1953 1941 O________OP_O_ jtwc_sh SH181966 -28.0000 -161.200 -1 -28.0000 198.800 TC 65 -27.9817 -161.174 4 -27.9000 -161.100 TC 85 12 241
1966024S15190 1966 7 SP MM NOT_NAMED 1966-02-04 21:00:00 TS -28.2474 198.261 main 1941 1937 P________PP_P_ SH181966 -28.2650 -161.760 -1 -28.2650 -161.760 TC 65 -28.2519 -161.733 4 -28.2078 -161.702 TC 82 11 240
1966024S15190 1966 7 SP MM NOT_NAMED 1966-02-05 00:00:00 TS -28.5000 197.800 main 1941 1935 O________OO_O_ jtwc_sh SH181966 -28.5000 -162.200 -1 -28.5000 197.800 TC 65 -28.5000 -162.200 4 -28.5000 -162.200 TC 80 8 234
1966024S15190 1966 7 SP MM NOT_NAMED 1966-02-05 03:00:00 TS -28.7082 197.537 main 1943 1943 P________PP_P_ SH181966 -28.7072 -162.445 -1 -28.7072 -162.445 TC 65 -28.7039 -162.506 4 -28.7146 -162.453 TC 80 5 223
1966024S15190 1966 7 SP MM NOT_NAMED 1966-02-05 06:00:00 TS -28.8977 197.371 main 1956 1951 O________OP_O_ jtwc_sh SH181966 -28.9000 -162.600 -1 -28.9000 197.400 TC 65 -28.8909 -162.715 4 -28.9000 -162.600 TC 80 5 220
1966024S15190 1966 7 SP MM NOT_NAMED 1966-02-05 09:00:00 TS -29.0844 197.178 main 1965 1938 P________PP_P_ SH181966 -29.0850 -162.808 -1 -29.0850 -162.808 TC 65 -29.0825 -162.866 4 -29.0850 -162.808 TC 80 5 219
1966024S15190 1966 7 SP MM NOT_NAMED 1966-02-05 12:00:00 TS -29.3000 197.000 main 1938 1911 O________OO_O_ jtwc_sh SH181966 -29.3000 -163.000 -1 -29.3000 197.000 TC 65 -29.3000 -163.000 4 -29.3000 -163.000 TC 80 6 209
1966024S15190 1966 7 SP MM NOT_NAMED 1966-02-05 15:00:00 TS -29.5955 196.854 main 1911 1877 P________PP_P_ SH181966 -29.5849 -163.150 -1 -29.5849 -163.150 TC 65 -29.6273 -163.133 4 -29.5849 -163.150 TC 77 7 202
1966024S15190 1966 7 SP MM NOT_NAMED 1966-02-05 18:00:00 TS -29.9184 196.708 main 1877 1851 O________OP_O_ jtwc_sh SH181966 -29.9000 -163.300 -1 -29.9000 196.700 TC 65 -29.9737 -163.267 4 -29.9000 -163.300 TC 75 7 202
1966024S15190 1966 7 SP MM NOT_NAMED 1966-02-05 21:00:00 TS -30.2544 196.548 main 1837 1809 P________PP_P_ SH181966 -30.2447 -163.455 -1 -30.2447 -163.455 TC 65 -30.2833 -163.442 4 -30.2447 -163.455 TC 75 7 211
1966024S15190 1966 7 SP MM NOT_NAMED 1966-02-06 00:00:00 TS -30.5000 196.300 main 1809 1776 O________OO_O_ jtwc_sh SH181966 -30.5000 -163.700 -1 -30.5000 196.300 TC 65 -30.5000 -163.700 4 -30.5000 -163.700 TC 75 6 243
1966024S15190 1966 7 SP MM NOT_NAMED 1966-02-06 03:00:00 TS -30.5438 195.891 main 1776 1736 P________PP_P_ SH181966 -30.5601 -164.105 -1 -30.5601 -164.105 TC 65 -30.4950 -164.120 4 -30.5601 -164.105 TC 75 8 272
1966024S15190 1966 7 SP MM NOT_NAMED 1966-02-06 06:00:00 TS -30.4755 195.396 main 1736 1701 O________OP_O_ jtwc_sh SH181966 -30.5000 -164.600 -1 -30.5000 195.400 TC 65 -30.4018 -164.617 4 -30.5000 -164.600 TC 75 9 282
1966024S15190 1966 7 SP MM NOT_NAMED 1966-02-06 09:00:00 TS -30.3526 194.877 main 1701 1667 P________PP_P_ SH181966 -30.3702 -165.123 -1 -30.3702 -165.123 TC 65 -30.3075 -165.130 4 -30.3626 -165.116 TC 72 9 282
1966024S15190 1966 7 SP MM NOT_NAMED 1966-02-06 12:00:00 TS -30.3000 194.400 main 1667 1637 O________OO_O_ jtwc_sh SH181966 -30.3000 -165.600 -1 -30.3000 194.400 TC 65 -30.3000 -165.600 4 -30.3000 -165.600 TC 70 7 263
1966024S15190 1966 7 SP MM NOT_NAMED 1966-02-06 15:00:00 TS -30.4342 194.050 main 1637 1595 P________PP_P_ SH181966 -30.4247 -165.930 -1 -30.4247 -165.930 TC 65 -30.4052 -165.951 4 -30.4823 -165.987 TC 67 7 234
1966024S15190 1966 7 SP MM NOT_NAMED 1966-02-06 18:00:00 TS -30.7054 193.761 main 1595 1553 O________OP_O_ jtwc_sh SH181966 -30.7000 -166.200 -1 -30.7000 193.800 TC 65 -30.6216 -166.255 4 -30.8000 -166.300 TC 65 8 220
1966024S15190 1966 7 SP MM NOT_NAMED 1966-02-06 21:00:00 TS -31.0104 193.485 main 1553 1499 P________PP_P_ SH181966 -31.0025 -166.501 -1 -31.0025 -166.501 TC 65 -30.9773 -166.531 4 -31.0596 -166.529 TC 62 9 211
1966024S15190 1966 7 SP MM NOT_NAMED 1966-02-07 00:00:00 TS -31.5000 193.200 main 1499 1427 O________OO_O_ jtwc_sh SH181966 -31.5000 -166.800 -1 -31.5000 193.200 TC 65 -31.5000 -166.800 4 -31.5000 -166.800 TC 60 14 205
1966024S15190 1966 7 SP MM NOT_NAMED 1966-02-07 03:00:00 TS -32.2781 192.801 main 1421 1342 P________PP_P_ SH181966 -32.2750 -167.100 -1 -32.2750 -167.100 TC 65 -32.2943 -167.275 4 -32.2682 -167.320 TC 60 18 201
1966024S15190 1966 7 SP MM NOT_NAMED 1966-02-07 06:00:00 TS -33.2083 192.418 main 1342 1276 O________OP_O_ jtwc_sh SH181966 -33.2000 -167.400 -1 -33.2000 192.600 TC 65 -33.2331 -167.728 4 -33.2000 -167.800 TC 60 20 199
1966024S15190 1966 7 SP MM NOT_NAMED 1966-02-07 09:00:00 TS -34.1477 192.052 main 1276 1233 P________PP_P_ SH181966 -34.1447 -167.846 -1 -34.1447 -167.846 TC 65 -34.1800 -168.019 4 -34.1215 -168.079 TC 57 18 191
1966024S15190 1966 7 SP MM NOT_NAMED 1966-02-07 12:00:00 TS -35.0000 192.000 main 1233 1229 O________OO_O_ jtwc_sh SH181966 -35.0000 -168.000 -1 -35.0000 192.000 TC 65 -35.0000 -168.000 4 -35.0000 -168.000 TC 55 16 166
1966024S15190 1966 7 SP MM NOT_NAMED 1966-02-07 15:00:00 TS -35.6891 192.533 main 1254 1254 P________PP_P_ SH181966 -35.6624 -167.498 -1 -35.6624 -167.498 TC 65 -35.5970 -167.401 4 -35.8348 -167.469 TC 52 16 135
1966024S15190 1966 7 SP MM NOT_NAMED 1966-02-07 18:00:00 TS -36.1583 193.428 main 1321 1321 O________OP_O_ jtwc_sh SH181966 -36.1000 -166.600 -1 -36.1000 193.400 TC 65 -36.0333 -166.489 4 -36.4000 -166.600 TC 50 17 114
1966024S15190 1966 7 SP MM NOT_NAMED 1966-02-07 21:00:00 TS -36.3920 194.479 main 1413 1413 P________PP_P_ SH181966 -36.3647 -165.532 -1 -36.3647 -165.532 TC 65 -36.3014 -165.481 4 -36.5371 -165.537 TC 47 16 99
1966024S15190 1966 7 SP MM NOT_NAMED 1966-02-08 00:00:00 TS -36.4000 195.400 main 1492 1492 O________OO_O_ jtwc_sh SH181966 -36.4000 -164.600 -1 -36.4000 195.400 TC 65 -36.4000 -164.600 4 -36.4000 -164.600 TC 45 11 84
1966024S15190 1966 7 SP MM NOT_NAMED 1966-02-08 03:00:00 TS -36.2732 195.792 main 1529 1529 P________PP_P_ SH181966 -36.2509 -164.245 -1 -36.2509 -164.245 TC 65 -36.3624 -164.155 4 -36.2285 -164.188 TC 42 6 53
1966024S15190 1966 7 SP MM NOT_NAMED 1966-02-08 06:00:00 TS -36.0439 195.982 main 1553 1553 O________OP_O_ jtwc_sh SH181966 -36.0000 -164.100 -1 -36.0000 195.900 TC 65 -36.1755 -163.873 4 -36.0000 -164.000 TC 40 6 40
1966024S15190 1966 7 SP MM NOT_NAMED 1966-02-08 09:00:00 TS -35.8309 196.244 main 1576 1576 P________PP_P_ SH181966 -35.8075 -163.800 -1 -35.8075 -163.800 TC 65 -35.9011 -163.679 4 -35.8074 -163.743 TC 37 6 43
1966024S15190 1966 7 SP MM NOT_NAMED 1966-02-08 12:00:00 TS -35.6000 196.500 main 1607 1607 O________OO_O_ jtwc_sh SH181966 -35.6000 -163.500 -1 -35.6000 196.500 TC 65 -35.6000 -163.500 4 -35.6000 -163.500 TC 35 6 41
1966024S15190 1966 7 SP MM NOT_NAMED 1966-02-08 15:00:00 TS -35.3578 196.744 main 1630 1630 P________PP_P_ SH181966 -35.3573 -163.250 -1 -35.3573 -163.250 TC 65 -35.3593 -163.267 4 -35.3574 -163.258 TC 32 6 39
1966024S15190 1966 7 SP MM NOT_NAMED 1966-02-08 18:00:00 TS -35.1015 196.993 main 1665 1665 O________OP_O_ jtwc_sh SH181966 -35.1000 -163.000 -1 -35.1000 197.000 TC 65 -35.1059 -163.026 4 -35.1000 -163.000 TC 30 7 40
1966024S15190 1966 7 SP MM NOT_NAMED 1966-02-08 21:00:00 TS -34.8516 197.263 main 1697 1697 P________PP_P_ SH181966 -34.8498 -162.730 -1 -34.8498 -162.730 TC 65 -34.8496 -162.748 4 -34.8572 -162.738 TC 27 7 45
1966024S15190 1966 7 SP MM NOT_NAMED 1966-02-09 00:00:00 TS -34.6000 197.600 main 1733 1733 O________OO_O_ jtwc_sh SH181966 -34.6000 -162.400 -1 -34.6000 197.600 TC 65 -34.6000 -162.400 4 -34.6000 -162.400 TC 25 8 50
1966024S15190 1966 7 SP MM NOT_NAMED 1966-02-09 03:00:00 TS -34.3222 198.030 main 1778 1778 P________PP_P_ SH181966 -34.3423 -161.995 -1 -34.3423 -161.995 TC 65 -34.3194 -161.953 4 -34.2850 -161.937 TC 25 9 55
1966024S15190 1966 7 SP MM NOT_NAMED 1966-02-09 06:00:00 TS -34.0632 198.541 main 1828 1828 O________OP_O_ jtwc_sh SH181966 -34.1000 -161.500 -1 -34.1000 198.500 TC 65 -34.0528 -161.437 4 -34.0000 -161.400 TC 25 10 62
1966024S15190 1966 7 SP MM NOT_NAMED 1966-02-09 09:00:00 TS -33.8449 199.107 main 1891 1891 P________PP_P_ SH181966 -33.8701 -160.915 -1 -33.8701 -160.915 TC 65 -33.8348 -160.877 4 -33.8048 -160.865 TC 22 10 69
1966024S15190 1966 7 SP MM NOT_NAMED 1966-02-09 12:00:00 TS -33.7000 199.700 main 1947 1947 O________OO_O_ jtwc_sh SH181966 -33.7000 -160.300 -1 -33.7000 199.700 TC 65 -33.7000 -160.300 4 -33.7000 -160.300 TC 20 10 77
1966024S15190 1966 7 SP MM NOT_NAMED 1966-02-09 15:00:00 TS -33.6267 200.269 main 2003 2003 P________PP_P_ SH181966 -33.5896 -159.750 -1 -33.5896 -159.750 TC 65 -33.6729 -159.724 4 -33.6549 -159.700 TC 20 9 87
1966024S15190 1966 7 SP MM NOT_NAMED 1966-02-09 18:00:00 TS -33.6585 200.838 main 2043 2043 O________OP_O_ jtwc_sh SH181966 -33.6000 -159.200 -1 -33.6000 200.800 TC 65 -33.7340 -159.149 4 -33.7000 -159.100 TC 20 10 100
1966024S15190 1966 7 SP MM NOT_NAMED 1966-02-09 21:00:00 TS -33.7994 201.415 main 2092 2092 P________PP_P_ SH181966 -33.7582 -158.614 -1 -33.7582 -158.614 TC 65 -33.8532 -158.575 4 -33.8278 -158.538 TC 17 10 109
1966024S15190 1966 7 SP MM NOT_NAMED 1966-02-10 00:00:00 TS -34.0000 202.000 main 2138 O________OO_O_ jtwc_sh SH181966 -34.0000 -158.000 -1 -34.0000 202.000 TC 65 -34.0000 -158.000 4 -34.0000 -158.000 TC 15 10 112

デジタル台風データ・検索

IBTrACS Databaseについて

本データベースは、米国NOAAが公開する1842年以降の世界の熱帯低気圧のベストトラックデータアーカイブInternational Best Track Archive for Climate Stewardship (IBTrACS)を、ウェブで閲覧しやすい形式に変換したものです。

最終更新日:2021-11-26